Time;durP1;ratioP1;P1;durP2;ratioP2;P2;SDS_P1;SDS_P2;PMS_P1;PMS_P2;Temp;Humidity;BMP_temperature;BMP_pressure;BME280_temperature;BME280_humidity;BME280_pressure;Samples;Min_cycle;Max_cycle;Signal;HPM_P1;HPM_P2
2024/03/14 00:00:06;;;;;;;6.90;4.60;;;;;;;12.18;100.00;100168.38;10425156;28;20079;-61
2024/03/14 00:05:09;;;;;;;7.90;4.63;;;;;;;12.31;100.00;100182.31;10425617;28;20691;-62
2024/03/14 00:10:11;;;;;;;5.60;3.80;;;;;;;12.29;100.00;100181.59;10441631;28;20053;-61
2024/03/14 00:15:13;;;;;;;6.78;4.80;;;;;;;12.30;100.00;100182.44;10451580;28;20764;-61
2024/03/14 00:20:15;;;;;;;4.93;4.35;;;;;;;12.27;100.00;100169.38;10445167;28;20049;-61
2024/03/14 00:25:16;;;;;;;7.82;4.82;;;;;;;12.24;100.00;100178.50;10444999;28;20056;-61
2024/03/14 00:30:18;;;;;;;6.70;4.57;;;;;;;12.22;100.00;100188.47;10430735;28;20044;-62
2024/03/14 00:35:21;;;;;;;5.60;4.45;;;;;;;12.21;100.00;100170.75;10414828;28;20099;-61
2024/03/14 00:40:23;;;;;;;6.30;4.40;;;;;;;12.12;100.00;100161.75;10399569;28;20757;-60
2024/03/14 00:45:24;;;;;;;6.40;4.63;;;;;;;12.21;100.00;100184.09;10429991;28;20095;-60
2024/03/14 00:50:26;;;;;;;5.50;4.50;;;;;;;12.19;100.00;100176.25;10422024;28;20137;-60
2024/03/14 00:55:28;;;;;;;7.28;4.32;;;;;;;12.14;100.00;100166.94;10426900;28;20525;-60
2024/03/14 01:00:31;;;;;;;7.25;5.35;;;;;;;12.11;100.00;100175.22;10440560;28;20072;-61
2024/03/14 01:05:33;;;;;;;5.45;4.15;;;;;;;12.08;100.00;100170.16;10431726;28;20052;-62
2024/03/14 01:10:37;;;;;;;4.60;4.20;;;;;;;12.04;100.00;100164.25;10411034;28;20152;-62
2024/03/14 01:15:39;;;;;;;5.32;4.20;;;;;;;12.06;100.00;100166.78;10440344;28;20123;-61
2024/03/14 01:20:40;;;;;;;5.75;4.47;;;;;;;12.07;100.00;100164.00;10429870;28;20106;-60
2024/03/14 01:25:42;;;;;;;6.78;4.72;;;;;;;12.08;100.00;100156.81;10427210;28;20052;-61
2024/03/14 01:30:44;;;;;;;5.55;3.97;;;;;;;12.03;100.00;100142.06;10442935;28;20044;-61
2024/03/14 01:35:45;;;;;;;5.47;4.85;;;;;;;12.04;100.00;100148.25;10438328;28;20118;-62
2024/03/14 01:40:47;;;;;;;7.03;4.78;;;;;;;11.90;100.00;100141.41;10420402;28;20704;-61
2024/03/14 01:45:49;;;;;;;6.38;4.32;;;;;;;11.81;100.00;100143.09;10417280;28;20518;-61
2024/03/14 01:50:50;;;;;;;8.40;4.45;;;;;;;11.78;100.00;100139.81;10429302;28;20053;-62
2024/03/14 01:55:52;;;;;;;5.28;4.18;;;;;;;11.76;100.00;100141.78;10430920;28;20041;-61
2024/03/14 02:00:54;;;;;;;5.78;4.18;;;;;;;11.71;100.00;100136.88;10447000;28;20057;-61
2024/03/14 02:06:07;;;;;;;5.35;4.78;;;;;;;11.70;100.00;100135.16;10441434;28;20048;-61
2024/03/14 02:11:09;;;;;;;8.02;4.15;;;;;;;11.68;100.00;100132.63;10436941;28;20052;-61
2024/03/14 02:16:10;;;;;;;6.60;4.50;;;;;;;11.54;100.00;100108.16;10427431;28;20052;-61
2024/03/14 02:21:12;;;;;;;5.30;4.72;;;;;;;11.59;100.00;100119.25;10434532;28;20071;-61
2024/03/14 02:26:13;;;;;;;4.68;4.25;;;;;;;11.58;100.00;100115.75;10441319;28;20060;-60
2024/03/14 02:31:15;;;;;;;5.88;4.82;;;;;;;11.54;100.00;100119.66;10421043;28;20036;-61
2024/03/14 02:36:16;;;;;;;6.20;5.30;;;;;;;11.46;100.00;100107.00;10415505;28;20684;-61
2024/03/14 02:41:18;;;;;;;6.88;4.90;;;;;;;11.49;100.00;100101.38;10436375;28;20141;-61
2024/03/14 02:46:20;;;;;;;7.03;4.90;;;;;;;11.46;100.00;100084.84;10439693;28;20073;-60
2024/03/14 02:51:21;;;;;;;6.72;4.93;;;;;;;11.51;100.00;100101.25;10428332;28;20574;-60
2024/03/14 02:56:23;;;;;;;8.18;5.15;;;;;;;11.45;100.00;100101.78;10437698;28;20905;-62
2024/03/14 03:01:24;;;;;;;6.47;4.82;;;;;;;11.40;100.00;100093.38;10417848;28;20163;-61
2024/03/14 03:06:26;;;;;;;6.30;5.30;;;;;;;11.39;100.00;100089.00;10440624;28;20056;-61
2024/03/14 03:11:32;;;;;;;8.95;5.15;;;;;;;11.35;100.00;100092.91;10435658;28;20094;-61
2024/03/14 03:16:33;;;;;;;6.40;4.93;;;;;;;11.36;100.00;100094.59;10407819;28;20056;-61
2024/03/14 03:21:40;;;;;;;7.45;4.97;;;;;;;11.36;100.00;100094.59;10420110;28;20051;-61
2024/03/14 03:26:43;;;;;;;5.82;4.78;;;;;;;11.35;100.00;100098.22;10429781;28;20045;-60
2024/03/14 03:31:46;;;;;;;6.55;4.35;;;;;;;11.41;100.00;100100.34;10433321;28;20591;-61
2024/03/14 03:36:48;;;;;;;6.05;4.97;;;;;;;11.49;100.00;100101.38;10435467;28;20127;-61
2024/03/14 03:41:49;;;;;;;6.03;4.47;;;;;;;11.54;100.00;100103.66;10441120;28;20056;-60
2024/03/14 03:46:51;;;;;;;6.40;4.78;;;;;;;11.52;100.00;100096.78;10435646;28;20057;-60
2024/03/14 03:51:52;;;;;;;6.88;5.13;;;;;;;11.54;100.00;100098.31;10442079;28;20114;-60
2024/03/14 03:56:54;;;;;;;5.60;4.65;;;;;;;11.55;100.00;100088.53;10446878;28;20048;-61
2024/03/14 04:01:55;;;;;;;5.45;4.95;;;;;;;11.53;100.00;100095.78;10446048;28;20059;-60
2024/03/14 04:06:57;;;;;;;7.60;5.15;;;;;;;11.49;100.00;100088.06;10433111;28;20075;-62
2024/03/14 04:11:58;;;;;;;6.35;4.95;;;;;;;11.49;100.00;100089.91;10424845;28;20055;-61
2024/03/14 04:17:01;;;;;;;7.10;5.10;;;;;;;11.48;100.00;100082.88;10421597;28;20191;-61
2024/03/14 04:22:05;;;;;;;6.60;5.35;;;;;;;11.45;100.00;100076.00;10415263;28;20529;-61
2024/03/14 04:27:07;;;;;;;7.15;5.38;;;;;;;11.40;100.00;100080.03;10439119;28;20125;-61
2024/03/14 04:32:13;;;;;;;11.05;6.00;;;;;;;11.30;100.00;100071.97;10449674;28;20056;-61
2024/03/14 04:37:15;;;;;;;9.65;5.75;;;;;;;11.22;100.00;100077.97;10430126;28;20052;-62
2024/03/14 04:42:17;;;;;;;8.60;5.97;;;;;;;11.24;100.00;100078.69;10439480;28;20613;-61
2024/03/14 04:47:20;;;;;;;6.43;5.43;;;;;;;11.20;100.00;100087.06;10450403;28;20151;-62
2024/03/14 04:52:22;;;;;;;6.35;5.75;;;;;;;11.16;100.00;100080.34;10418074;28;20271;-62
2024/03/14 04:57:24;;;;;;;6.80;5.65;;;;;;;11.21;100.00;100091.44;10451817;28;20044;-61
2024/03/14 05:02:25;;;;;;;6.82;4.82;;;;;;;11.21;100.00;100084.28;10429849;28;20542;-61
2024/03/14 05:07:27;;;;;;;8.02;6.47;;;;;;;11.21;100.00;100089.59;10440806;28;20048;-61
2024/03/14 05:12:29;;;;;;;7.28;5.20;;;;;;;11.15;100.00;100092.78;10446618;28;20052;-61
2024/03/14 05:17:34;;;;;;;6.50;5.63;;;;;;;11.06;100.00;100091.75;10415764;28;20171;-62
2024/03/14 05:22:38;;;;;;;7.35;6.25;;;;;;;11.02;100.00;100093.00;10439713;28;20515;-60
2024/03/14 05:27:47;;;;;;;7.93;6.15;;;;;;;11.00;100.00;100083.47;10431077;28;20055;-60
2024/03/14 05:32:51;;;;;;;7.25;6.18;;;;;;;10.98;100.00;100090.75;10438858;28;20083;-61
2024/03/14 05:37:53;;;;;;;7.35;6.38;;;;;;;10.91;100.00;100083.28;10439610;28;20048;-61
2024/03/14 05:42:55;;;;;;;6.15;5.53;;;;;;;10.87;100.00;100079.19;10428270;28;20193;-61
2024/03/14 05:48:11;;;;;;;7.72;5.55;;;;;;;10.76;100.00;100065.91;10435271;28;20045;-61
2024/03/14 05:53:13;;;;;;;7.63;6.10;;;;;;;10.82;100.00;100084.03;10441528;28;20049;-61
2024/03/14 05:58:14;;;;;;;8.15;5.32;;;;;;;10.81;100.00;100079.69;10436294;28;20606;-62
2024/03/14 06:03:15;;;;;;;7.50;6.00;;;;;;;10.81;100.00;100077.03;10401180;28;20114;-62
2024/03/14 06:08:17;;;;;;;9.75;6.03;;;;;;;10.93;100.00;100089.31;10419484;28;20126;-61
2024/03/14 06:13:18;;;;;;;7.38;6.10;;;;;;;10.86;100.00;100085.47;10429065;28;20060;-61
2024/03/14 06:18:21;;;;;;;6.50;5.40;;;;;;;10.90;100.00;100078.91;10433278;28;20058;-61
2024/03/14 06:23:23;;;;;;;7.85;6.53;;;;;;;10.92;100.00;100079.63;10421562;28;20068;-62
2024/03/14 06:28:25;;;;;;;8.32;5.90;;;;;;;10.74;100.00;100041.25;10424702;28;20051;-60
2024/03/14 06:33:27;;;;;;;7.93;6.28;;;;;;;10.96;100.00;100073.06;10432316;28;20474;-61
2024/03/14 06:38:28;;;;;;;10.75;6.50;;;;;;;10.94;100.00;100075.03;10420119;28;20052;-62
2024/03/14 06:43:31;;;;;;;8.70;5.85;;;;;;;10.90;100.00;100072.72;10442468;28;20702;-62
2024/03/14 06:48:32;;;;;;;8.23;6.35;;;;;;;10.96;100.00;100080.22;10438558;28;20052;-61
2024/03/14 06:53:36;;;;;;;8.20;5.45;;;;;;;11.06;100.00;100082.94;10440840;28;20040;-61
2024/03/14 06:58:38;;;;;;;9.13;5.95;;;;;;;11.02;100.00;100076.16;10432845;28;20053;-60
2024/03/14 07:03:41;;;;;;;10.48;6.25;;;;;;;11.09;100.00;100085.34;10417243;28;20057;-61
2024/03/14 07:08:44;;;;;;;9.75;7.18;;;;;;;11.07;100.00;100082.78;10438124;28;20053;-60
2024/03/14 07:13:48;;;;;;;8.70;6.53;;;;;;;11.11;100.00;100092.22;10421099;28;20060;-62
2024/03/14 07:18:50;;;;;;;7.32;6.30;;;;;;;11.22;100.00;100093.13;10426942;28;20052;-61
2024/03/14 07:23:53;;;;;;;6.47;5.38;;;;;;;11.23;100.00;100098.31;10412809;28;20221;-62
2024/03/14 07:28:57;;;;;;;8.13;5.97;;;;;;;11.29;100.00;100095.13;10432966;28;20053;-61
2024/03/14 07:34:12;;;;;;;9.77;6.13;;;;;;;11.31;100.00;100103.81;10418715;28;20052;-62
2024/03/14 07:39:15;;;;;;;7.05;6.03;;;;;;;11.40;100.00;100112.03;10433494;28;20562;-61
2024/03/14 07:44:18;;;;;;;8.73;6.18;;;;;;;11.43;100.00;100101.94;10362042;28;20155;-62
2024/03/14 07:49:35;;;;;;;8.88;6.22;;;;;;;11.54;100.00;100100.16;10429442;28;20040;-61
2024/03/14 07:54:39;;;;;;;7.23;6.13;;;;;;;11.65;100.00;100108.91;10425423;28;20052;-62
2024/03/14 07:59:42;;;;;;;8.57;6.53;;;;;;;11.79;100.00;100110.34;10414923;28;20044;-61
2024/03/14 08:04:44;;;;;;;7.93;6.15;;;;;;;11.90;100.00;100088.06;10425220;28;20052;-61
2024/03/14 08:09:46;;;;;;;7.57;6.35;;;;;;;12.17;100.00;100113.31;10425821;28;20060;-61
2024/03/14 08:14:47;;;;;;;7.05;6.10;;;;;;;12.32;100.00;100108.41;10416026;28;20056;-60
2024/03/14 08:19:51;;;;;;;7.10;6.07;;;;;;;12.62;98.19;100101.28;10440973;28;20135;-61
2024/03/14 08:24:53;;;;;;;5.30;4.80;;;;;;;12.87;99.35;100099.88;10450214;28;20059;-61
2024/03/14 08:29:55;;;;;;;7.25;4.95;;;;;;;13.24;98.09;100096.41;10410235;28;20053;-63
2024/03/14 08:34:57;;;;;;;6.78;5.57;;;;;;;13.48;95.59;100097.78;10413013;28;20152;-62
2024/03/14 08:40:00;;;;;;;10.35;5.72;;;;;;;13.72;94.62;100098.13;10428891;28;20163;-63
2024/03/14 08:45:03;;;;;;;8.73;5.90;;;;;;;13.91;90.92;100088.31;10441942;28;20052;-61
2024/03/14 08:50:05;;;;;;;6.50;5.85;;;;;;;14.08;90.25;100092.00;10445441;28;20052;-62
2024/03/14 08:55:23;;;;;;;9.77;6.90;;;;;;;14.30;89.94;100088.88;10445774;28;20068;-62
2024/03/14 09:00:25;;;;;;;6.47;5.82;;;;;;;14.49;87.46;100095.94;10397632;28;20666;-62
2024/03/14 09:05:29;;;;;;;7.05;6.07;;;;;;;14.69;85.53;100106.53;10420337;28;20250;-63
2024/03/14 09:10:33;;;;;;;7.78;6.35;;;;;;;14.90;86.39;100097.34;10424148;28;20595;-60
2024/03/14 09:15:35;;;;;;;7.20;5.97;;;;;;;15.07;83.89;100104.50;10401663;28;20053;-63
2024/03/14 09:20:38;;;;;;;10.40;6.28;;;;;;;15.21;81.66;100089.69;10424325;28;20078;-61
2024/03/14 09:25:40;;;;;;;7.07;5.60;;;;;;;15.29;81.73;100096.94;10422995;28;20045;-61
2024/03/14 09:30:42;;;;;;;6.10;5.35;;;;;;;15.46;81.32;100097.88;10441779;28;20045;-62
2024/03/14 09:35:48;;;;;;;7.13;5.38;;;;;;;15.74;79.66;100094.00;10407659;28;20048;-61
2024/03/14 09:40:50;;;;;;;7.13;6.05;;;;;;;15.97;77.30;100090.75;10428004;28;20090;-60
2024/03/14 09:45:54;;;;;;;9.75;6.18;;;;;;;16.05;75.96;100092.66;10440401;28;20064;-61
2024/03/14 09:50:56;;;;;;;;;;;;;;;16.20;75.31;100093.69;10417194;28;20060;-62
2024/03/14 09:55:58;;;;;;;7.07;5.28;;;;;;;16.43;71.78;100090.38;10436935;28;20567;-67
2024/03/14 10:01:03;;;;;;;8.50;5.13;;;;;;;16.56;71.97;100089.91;10422017;28;20052;-65
2024/03/14 10:06:15;;;;;;;7.40;4.55;;;;;;;16.82;72.10;100084.34;10418337;28;20882;-66
2024/03/14 10:11:21;;;;;;;7.50;4.72;;;;;;;16.57;69.88;100081.66;10426776;28;20047;-65
2024/03/14 10:16:23;;;;;;;6.65;4.32;;;;;;;16.65;69.20;100083.50;10445475;28;20501;-68
2024/03/14 10:21:24;;;;;;;6.40;4.68;;;;;;;17.15;69.06;100084.34;10424471;28;20048;-67
2024/03/14 10:26:27;;;;;;;7.10;4.10;;;;;;;17.30;68.62;100079.13;10439965;28;20095;-63
2024/03/14 10:31:29;;;;;;;7.25;4.60;;;;;;;17.77;67.64;100077.44;10423140;28;20179;-63
2024/03/14 10:36:32;;;;;;;8.05;4.85;;;;;;;17.87;66.96;100078.09;10441331;28;20044;-68
2024/03/14 10:41:34;;;;;;;5.63;4.97;;;;;;;17.90;66.40;100072.38;10417336;28;20048;-67
2024/03/14 10:46:40;;;;;;;6.10;4.28;;;;;;;17.71;66.79;100059.31;10419801;28;20048;-65
2024/03/14 10:51:41;;;;;;;5.82;4.22;;;;;;;17.43;67.95;100059.72;10439318;28;20099;-67
2024/03/14 10:56:49;;;;;;;4.85;4.10;;;;;;;16.99;67.12;100057.50;10419186;28;20063;-69
2024/03/14 11:01:55;;;;;;;6.40;3.97;;;;;;;17.02;68.74;100041.00;10442166;28;20063;-67
2024/03/14 11:07:06;;;;;;;5.75;4.32;;;;;;;17.54;66.62;100034.31;10438862;28;20051;-66
2024/03/14 11:12:19;;;;;;;4.28;3.88;;;;;;;18.38;63.19;100046.16;10438927;28;20143;-67
2024/03/14 11:17:24;;;;;;;5.93;4.35;;;;;;;19.29;60.62;100042.69;10446248;28;20101;-65
2024/03/14 11:22:25;;;;;;;3.85;3.50;;;;;;;19.47;59.25;100030.66;10430247;28;20542;-66
2024/03/14 11:27:29;;;;;;;6.78;4.00;;;;;;;19.88;57.54;100028.31;10437622;28;20059;-68
2024/03/14 11:32:33;;;;;;;4.03;3.20;;;;;;;20.03;58.44;100028.28;10372489;28;20535;-69
2024/03/14 11:37:58;;;;;;;5.93;4.47;;;;;;;20.07;56.53;100020.59;10437348;28;20047;-66
2024/03/14 11:43:00;;;;;;;6.05;3.13;;;;;;;20.13;56.48;100012.59;10439361;28;20145;-66
2024/03/14 11:48:02;;;;;;;5.97;3.78;;;;;;;19.50;58.41;100014.09;10441229;28;20048;-66
2024/03/14 11:53:11;;;;;;;3.88;3.33;;;;;;;18.75;59.28;99999.69;10427501;28;20068;-65
2024/03/14 11:58:14;;;;;;;5.25;3.05;;;;;;;18.38;61.36;99992.25;10436278;28;20138;-65
2024/03/14 12:03:22;;;;;;;2.88;2.58;;;;;;;19.32;58.86;99985.66;10428169;28;20063;-67
2024/03/14 12:08:24;;;;;;;2.92;2.20;;;;;;;20.68;54.70;99971.50;10420221;28;20417;-67
2024/03/14 12:13:27;;;;;;;3.95;2.90;;;;;;;22.04;51.47;99961.97;10424525;28;20480;-65
2024/03/14 12:18:29;;;;;;;3.42;2.20;;;;;;;24.14;43.85;99954.78;10446605;28;20120;-65
2024/03/14 12:23:32;;;;;;;2.53;2.33;;;;;;;23.75;44.68;99956.69;10423708;28;20244;-64
2024/03/14 12:28:34;;;;;;;;;;;;;;;22.80;44.91;99933.59;10434628;28;20241;-68
2024/03/14 12:33:41;;;;;;;2.33;2.13;;;;;;;22.68;47.00;99924.44;10437134;28;19924;-66
2024/03/14 12:38:52;;;;;;;3.47;2.55;;;;;;;22.71;45.81;99929.47;10398063;28;20082;-69
2024/03/14 12:43:56;;;;;;;1.80;1.70;;;;;;;26.37;37.76;99904.63;10419826;28;20045;-66
2024/03/14 12:48:59;;;;;;;2.20;1.83;;;;;;;27.72;34.41;99870.06;10450950;28;20082;-67
2024/03/14 12:54:01;;;;;;;1.48;1.17;;;;;;;28.81;31.13;99884.38;10437274;28;20612;-66
2024/03/14 12:59:08;;;;;;;1.65;1.20;;;;;;;29.74;30.90;99881.66;10383683;28;20093;-66
2024/03/14 13:04:17;;;;;;;2.90;1.40;;;;;;;29.04;31.25;99878.66;10442949;28;20056;-65
2024/03/14 13:09:21;;;;;;;1.98;1.13;;;;;;;27.36;32.83;99875.69;10392030;28;20473;-66
2024/03/14 13:14:25;;;;;;;2.33;0.98;;;;;;;27.06;33.85;99865.78;10433621;28;20048;-67
2024/03/14 13:19:28;;;;;;;1.45;1.20;;;;;;;26.80;33.18;99856.25;10419088;28;20060;-68
2024/03/14 13:24:30;;;;;;;2.75;1.25;;;;;;;26.96;33.27;99851.91;10431031;28;20053;-67
2024/03/14 13:29:35;;;;;;;1.48;1.00;;;;;;;25.93;34.83;99831.28;10444624;28;20068;-66
2024/03/14 13:34:39;;;;;;;;;;;;;;;25.39;36.25;99846.81;10446733;28;20063;-67
2024/03/14 13:39:41;;;;;;;1.83;1.27;;;;;;;26.59;33.97;99833.09;10435451;28;19928;-65
2024/03/14 13:44:43;;;;;;;2.53;1.42;;;;;;;25.76;35.66;99827.56;10416822;28;20056;-66
2024/03/14 13:49:45;;;;;;;2.25;0.98;;;;;;;24.20;38.13;99823.44;10428969;28;20055;-67
2024/03/14 13:54:47;;;;;;;;;;;;;;;23.77;39.21;99821.44;10439320;28;20195;-67
2024/03/14 13:59:51;;;;;;;2.33;1.42;;;;;;;22.96;40.78;99815.63;10432029;28;21434;-66
2024/03/14 14:04:54;;;;;;;1.92;1.50;;;;;;;22.53;42.54;99818.91;10442542;28;20057;-66
2024/03/14 14:09:59;;;;;;;1.30;1.17;;;;;;;22.90;42.00;99813.78;10430179;28;20055;-66
2024/03/14 14:15:01;;;;;;;2.27;1.43;;;;;;;23.46;40.35;99806.81;10401633;28;20318;-67
2024/03/14 14:20:11;;;;;;;3.58;1.70;;;;;;;23.70;41.25;99796.22;10436833;28;20044;-66
2024/03/14 14:25:13;;;;;;;2.17;1.40;;;;;;;23.24;41.23;99798.19;10438905;28;20088;-66
2024/03/14 14:30:25;;;;;;;1.50;1.00;;;;;;;23.27;41.34;99781.47;10448518;28;20059;-67
2024/03/14 14:35:26;;;;;;;2.10;1.42;;;;;;;23.16;41.71;99780.28;10429121;28;20118;-67
2024/03/14 14:40:28;;;;;;;1.42;1.10;;;;;;;22.80;42.88;99776.25;10441627;28;20799;-67
2024/03/14 14:45:30;;;;;;;3.42;1.75;;;;;;;22.40;42.67;99768.28;10448379;28;20475;-66
2024/03/14 14:50:34;;;;;;;1.83;1.02;;;;;;;22.02;43.18;99758.09;10434795;28;20250;-68
2024/03/14 14:55:40;;;;;;;1.80;1.48;;;;;;;21.78;44.06;99749.56;10423682;28;20159;-70
2024/03/14 15:00:42;;;;;;;2.55;1.52;;;;;;;21.72;44.98;99739.56;10439366;28;20057;-66
2024/03/14 15:05:44;;;;;;;2.83;2.03;;;;;;;21.56;44.73;99712.91;10424133;28;20052;-67
2024/03/14 15:10:46;;;;;;;2.03;1.75;;;;;;;21.28;46.21;99722.84;10426177;28;20091;-64
2024/03/14 15:15:50;;;;;;;3.27;1.93;;;;;;;21.07;46.13;99718.47;10441500;28;20783;-65
2024/03/14 15:20:53;;;;;;;2.85;1.60;;;;;;;20.82;46.29;99716.34;10443211;28;21152;-66
2024/03/14 15:25:58;;;;;;;3.10;1.75;;;;;;;20.66;47.44;99716.69;10444819;28;20119;-66
2024/03/14 15:30:59;;;;;;;5.47;1.63;;;;;;;20.46;47.62;99698.50;10437887;28;20448;-67
2024/03/14 15:36:01;;;;;;;3.08;1.63;;;;;;;20.19;48.01;99699.41;10451677;28;20534;-66
2024/03/14 15:41:03;;;;;;;3.88;1.92;;;;;;;19.86;48.72;99695.47;10439775;28;20083;-65
2024/03/14 15:46:05;;;;;;;1.73;1.50;;;;;;;19.63;49.93;99682.19;10451677;28;20529;-66
2024/03/14 15:51:14;;;;;;;3.67;1.88;;;;;;;19.40;50.17;99688.66;10446734;28;20053;-66
2024/03/14 15:56:17;;;;;;;2.88;1.65;;;;;;;19.31;50.96;99680.91;10438111;28;20421;-65
2024/03/14 16:01:19;;;;;;;3.28;1.85;;;;;;;19.19;51.38;99683.31;10391506;28;20040;-65
2024/03/14 16:06:21;;;;;;;2.72;2.40;;;;;;;18.96;51.77;99670.84;10433232;28;20056;-64
2024/03/14 16:11:23;;;;;;;5.45;2.20;;;;;;;18.76;52.68;99683.25;10418355;28;20056;-66
2024/03/14 16:16:25;;;;;;;3.00;2.70;;;;;;;18.58;52.96;99672.88;10440973;28;20670;-66
2024/03/14 16:21:29;;;;;;;4.45;2.65;;;;;;;18.49;53.90;99678.38;10424999;28;20147;-64
2024/03/14 16:26:32;;;;;;;3.65;2.67;;;;;;;18.35;54.17;99665.78;10405019;28;20132;-66
2024/03/14 16:31:38;;;;;;;2.35;2.10;;;;;;;18.41;54.84;99680.38;10446957;28;20056;-65
2024/03/14 16:36:41;;;;;;;4.50;2.60;;;;;;;18.30;55.02;99677.13;10449151;28;20048;-67
2024/03/14 16:41:43;;;;;;;3.58;2.30;;;;;;;18.16;57.04;99675.28;10426027;28;20144;-62
2024/03/14 16:46:45;;;;;;;3.17;2.20;;;;;;;18.13;56.37;99670.25;10433608;28;21373;-65
2024/03/14 16:51:47;;;;;;;3.40;2.75;;;;;;;17.97;56.43;99660.50;10450886;28;20409;-64
2024/03/14 16:56:49;;;;;;;2.95;2.25;;;;;;;17.89;57.08;99655.19;10449453;28;20079;-64
2024/03/14 17:01:53;;;;;;;3.97;2.10;;;;;;;17.80;57.02;99657.16;10412510;28;20100;-66
2024/03/14 17:06:57;;;;;;;3.10;2.80;;;;;;;17.70;57.49;99656.56;10413347;28;20829;-66
2024/03/14 17:12:01;;;;;;;4.70;2.50;;;;;;;17.57;57.60;99647.28;10404273;28;20057;-64
2024/03/14 17:17:04;;;;;;;2.85;2.55;;;;;;;17.53;58.13;99662.13;10412012;28;20197;-65
2024/03/14 17:22:13;;;;;;;2.10;1.90;;;;;;;17.45;58.46;99659.53;10432798;28;20147;-64
2024/03/14 17:27:19;;;;;;;4.60;2.50;;;;;;;17.39;58.85;99666.47;10447799;28;20053;-69
2024/03/14 17:32:24;;;;;;;3.88;2.50;;;;;;;17.34;59.55;99665.34;10438131;28;20048;-64
2024/03/14 17:37:26;;;;;;;4.03;3.00;;;;;;;17.02;59.12;99633.16;10452132;28;20052;-65
2024/03/14 17:42:32;;;;;;;3.20;2.85;;;;;;;17.17;58.53;99668.16;10448310;28;20056;-65
2024/03/14 17:47:34;;;;;;;4.35;3.30;;;;;;;17.07;57.89;99670.25;10436709;28;20055;-65
2024/03/14 17:52:36;;;;;;;3.35;2.70;;;;;;;17.01;58.00;99668.28;10420291;28;20388;-65
2024/03/14 17:57:38;;;;;;;3.30;2.70;;;;;;;16.94;58.11;99662.81;10450673;28;20829;-64
2024/03/14 18:02:41;;;;;;;5.30;2.60;;;;;;;16.84;58.53;99668.38;10424899;28;20060;-66
2024/03/14 18:07:43;;;;;;;4.97;3.25;;;;;;;16.77;59.39;99662.06;10443634;28;20122;-67
2024/03/14 18:12:46;;;;;;;4.72;3.38;;;;;;;16.73;59.80;99671.50;10438314;28;20990;-64
2024/03/14 18:17:48;;;;;;;5.50;3.58;;;;;;;16.69;60.10;99670.16;10445083;28;20051;-66
2024/03/14 18:22:54;;;;;;;5.00;3.83;;;;;;;16.64;60.70;99656.44;10414531;28;21017;-66
2024/03/14 18:27:58;;;;;;;4.10;3.00;;;;;;;16.65;61.19;99669.69;10420762;28;20542;-66
2024/03/14 18:32:59;;;;;;;5.10;3.70;;;;;;;16.57;61.29;99675.97;10417003;28;20182;-67
2024/03/14 18:38:01;;;;;;;4.20;3.22;;;;;;;16.37;61.88;99650.53;10423546;28;20056;-66
2024/03/14 18:43:05;;;;;;;6.15;2.65;;;;;;;16.49;61.99;99670.63;10437367;28;20097;-65
2024/03/14 18:48:08;;;;;;;4.07;3.00;;;;;;;16.44;61.90;99673.00;10417400;28;20131;-64
2024/03/14 18:53:10;;;;;;;4.90;3.53;;;;;;;16.41;62.24;99670.66;10422311;28;20060;-66
2024/03/14 18:58:22;;;;;;;5.10;4.25;;;;;;;16.37;62.33;99666.66;10411142;28;20099;-70
2024/03/14 19:03:26;;;;;;;5.15;4.30;;;;;;;16.28;62.40;99665.03;10427897;28;20064;-65
2024/03/14 19:08:28;;;;;;;5.40;3.50;;;;;;;16.25;62.52;99685.81;10411818;28;20057;-65
2024/03/14 19:13:30;;;;;;;4.72;3.88;;;;;;;16.20;62.62;99676.66;10407884;28;20063;-65
2024/03/14 19:18:31;;;;;;;3.88;3.47;;;;;;;16.17;62.71;99661.72;10429920;28;20148;-65
2024/03/14 19:23:33;;;;;;;4.50;3.92;;;;;;;16.11;62.76;99661.56;10433048;28;20045;-65
2024/03/14 19:28:35;;;;;;;3.70;3.33;;;;;;;16.02;62.78;99668.81;10421193;28;20067;-65
2024/03/14 19:33:37;;;;;;;4.90;3.85;;;;;;;15.99;63.31;99661.94;10442737;28;20109;-65
2024/03/14 19:38:38;;;;;;;4.72;3.83;;;;;;;15.94;63.52;99655.41;10403217;28;20056;-66
2024/03/14 19:43:41;;;;;;;6.68;4.90;;;;;;;15.90;63.64;99655.75;10436742;28;20067;-65
2024/03/14 19:48:43;;;;;;;7.83;4.33;;;;;;;15.81;64.08;99651.44;10439789;28;20135;-66
2024/03/14 19:53:52;;;;;;;5.75;4.70;;;;;;;15.78;64.49;99650.94;10380339;28;20052;-65
2024/03/14 19:58:56;;;;;;;5.13;4.63;;;;;;;15.71;65.07;99656.94;10408838;28;20060;-66
2024/03/14 20:03:57;;;;;;;5.32;4.82;;;;;;;15.47;65.70;99622.97;10430574;28;20048;-65
2024/03/14 20:08:59;;;;;;;5.70;5.20;;;;;;;15.56;65.65;99656.81;10396477;28;20590;-65
2024/03/14 20:14:00;;;;;;;5.57;5.07;;;;;;;15.53;66.02;99654.47;10449292;28;20051;-66
2024/03/14 20:19:04;;;;;;;6.15;4.88;;;;;;;15.46;66.57;99652.66;10424799;28;20132;-66
2024/03/14 20:24:06;;;;;;;7.75;5.50;;;;;;;15.38;66.77;99662.38;10374461;28;20596;-65
2024/03/14 20:29:10;;;;;;;7.47;5.72;;;;;;;15.13;67.01;99625.88;10463807;28;20067;-65
2024/03/14 20:34:13;;;;;;;6.32;5.57;;;;;;;15.23;67.39;99653.34;10439007;28;20106;-67
2024/03/14 20:39:22;;;;;;;7.85;5.80;;;;;;;15.18;67.78;99656.53;10437428;28;20079;-64
2024/03/14 20:44:24;;;;;;;6.00;5.00;;;;;;;15.17;67.93;99654.84;10476749;28;20037;-65
2024/03/14 20:49:25;;;;;;;6.85;6.00;;;;;;;15.07;68.30;99651.50;10429187;28;20111;-66
2024/03/14 20:54:27;;;;;;;8.82;5.53;;;;;;;15.03;68.61;99642.97;10409704;28;20081;-65
2024/03/14 20:59:29;;;;;;;5.65;5.05;;;;;;;14.95;69.02;99644.78;10449680;28;20067;-65
2024/03/14 21:04:33;;;;;;;6.72;5.75;;;;;;;14.88;69.17;99654.50;10434017;28;20048;-64
2024/03/14 21:09:38;;;;;;;7.25;5.90;;;;;;;14.76;69.50;99625.38;10439722;28;20158;-66
2024/03/14 21:14:41;;;;;;;6.85;6.15;;;;;;;14.71;70.09;99648.28;10435511;28;20065;-64
2024/03/14 21:19:45;;;;;;;8.55;6.70;;;;;;;14.64;70.25;99645.44;10448277;28;20072;-65
2024/03/14 21:24:47;;;;;;;12.05;10.43;;;;;;;14.63;70.13;99649.13;10445964;28;20139;-67
2024/03/14 21:29:48;;;;;;;8.90;6.45;;;;;;;14.62;70.62;99656.31;10451328;28;20192;-65
2024/03/14 21:34:50;;;;;;;6.10;5.50;;;;;;;14.59;70.80;99653.09;10449187;28;20051;-67
2024/03/14 21:39:52;;;;;;;5.88;4.95;;;;;;;14.59;70.72;99653.09;10447739;28;20044;-65
2024/03/14 21:44:53;;;;;;;6.20;5.32;;;;;;;14.56;70.76;99658.78;10449406;28;20064;-66
2024/03/14 21:49:55;;;;;;;6.38;5.70;;;;;;;14.53;70.79;99651.06;10421097;28;20055;-67
2024/03/14 21:54:56;;;;;;;6.15;5.38;;;;;;;14.47;71.06;99650.72;10444985;28;20198;-66
2024/03/14 21:59:57;;;;;;;6.63;5.78;;;;;;;14.39;71.21;99653.38;10446237;28;20075;-66
2024/03/14 22:05:00;;;;;;;7.05;6.03;;;;;;;14.28;71.65;99638.44;10443585;28;20049;-67
2024/03/14 22:10:02;;;;;;;6.10;5.10;;;;;;;14.28;72.11;99643.81;10441952;28;20174;-65
2024/03/14 22:15:05;;;;;;;6.75;5.53;;;;;;;14.18;71.85;99643.09;10443409;28;20052;-65
2024/03/14 22:20:09;;;;;;;6.65;6.05;;;;;;;14.13;72.11;99629.38;10431952;28;20056;-67
2024/03/14 22:25:12;;;;;;;6.60;6.00;;;;;;;14.10;72.28;99627.84;10429684;28;20148;-66
2024/03/14 22:30:13;;;;;;;6.13;5.55;;;;;;;14.10;72.68;99627.03;10386325;28;20057;-64
2024/03/14 22:35:15;;;;;;;6.47;5.43;;;;;;;14.04;72.32;99631.19;10439374;28;20048;-67
2024/03/14 22:40:17;;;;;;;5.90;5.22;;;;;;;14.00;72.35;99629.81;10441213;28;20056;-66
2024/03/14 22:45:18;;;;;;;6.05;5.55;;;;;;;13.94;72.71;99635.81;10432294;28;20380;-65
2024/03/14 22:50:20;;;;;;;8.65;5.65;;;;;;;13.93;72.96;99640.34;10440542;28;20056;-67
2024/03/14 22:55:22;;;;;;;7.20;5.40;;;;;;;13.90;73.18;99626.41;10451301;28;20815;-64
2024/03/14 23:00:36;;;;;;;7.13;5.65;;;;;;;13.82;73.30;99610.34;10424977;28;20071;-65
2024/03/14 23:05:38;;;;;;;6.78;6.00;;;;;;;13.88;72.87;99631.09;10427537;28;20079;-66
2024/03/14 23:10:40;;;;;;;6.43;5.68;;;;;;;13.80;73.50;99629.25;10445367;28;20045;-65
2024/03/14 23:15:45;;;;;;;5.60;5.10;;;;;;;13.77;73.31;99622.34;10393932;28;20056;-64